AZU4233 SBCT-SBFI
Flight info
| Callsign | AZU4233 |
|---|---|
| Flight time | 0h 52m |
| Altitude | 30000 |
| Route | EVSUP UZ161 DIDOM |
| Aircraft | E195/M-SDE3GILORVW/S |
Departure
| Time | 2026-05-04 20:12 |
|---|---|
| Airport | Curitiba-Afonso Pena International Airport (SBCT) |
Arrival
| Time | 2026-05-04 21:05 |
|---|---|
| Airport | Cataratas International Airport (SBFI) |
| Time | Latitude | Longitude | Altitude | Speed | Heading |
|---|---|---|---|---|---|
| 2026-05-04 19:46 | -25.53528 | -49.17261 | 2984 ft | 0 kts | 223° |
| 2026-05-04 20:07 | -25.53528 | -49.17262 | 2984 ft | 0 kts | 223° |
| 2026-05-04 20:07 | -25.53529 | -49.17263 | 2984 ft | 1 kts | 223° |
| 2026-05-04 20:07 | -25.53514 | -49.17246 | 2984 ft | 1 kts | 220° |
| 2026-05-04 20:08 | -25.53501 | -49.17237 | 2984 ft | 5 kts | 207° |
| 2026-05-04 20:08 | -25.53478 | -49.17225 | 2984 ft | 2 kts | 173° |
| 2026-05-04 20:08 | -25.53468 | -49.17228 | 2984 ft | 1 kts | 140° |
| 2026-05-04 20:08 | -25.53469 | -49.17228 | 2984 ft | 0 kts | 140° |
| 2026-05-04 20:09 | -25.53478 | -49.17219 | 2984 ft | 4 kts | 140° |
| 2026-05-04 20:09 | -25.53512 | -49.17182 | 2983 ft | 10 kts | 133° |
| 2026-05-04 20:09 | -25.53574 | -49.17111 | 2983 ft | 14 kts | 138° |
| 2026-05-04 20:10 | -25.53637 | -49.17030 | 2982 ft | 13 kts | 105° |
| 2026-05-04 20:10 | -25.53612 | -49.16946 | 2981 ft | 12 kts | 88° |
| 2026-05-04 20:10 | -25.53612 | -49.16847 | 2980 ft | 14 kts | 90° |
| 2026-05-04 20:10 | -25.53606 | -49.16753 | 2979 ft | 9 kts | 70° |
| 2026-05-04 20:11 | -25.53571 | -49.16756 | 2979 ft | 6 kts | 293° |
| 2026-05-04 20:11 | -25.53558 | -49.16782 | 2979 ft | 0 kts | 304° |
| 2026-05-04 20:11 | -25.53554 | -49.16789 | 2979 ft | 10 kts | 304° |
| 2026-05-04 20:11 | -25.53357 | -49.17014 | 2983 ft | 71 kts | 314° |
| 2026-05-04 20:12 | -25.52873 | -49.17553 | 2987 ft | 124 kts | 315° |
| 2026-05-04 20:12 | -25.52178 | -49.18322 | 3174 ft | 146 kts | 314° |
| 2026-05-04 20:12 | -25.51604 | -49.19189 | 3844 ft | 145 kts | 298° |
| 2026-05-04 20:12 | -25.51373 | -49.20415 | 4162 ft | 175 kts | 269° |
| 2026-05-04 20:13 | -25.51665 | -49.21762 | 4814 ft | 190 kts | 252° |
| 2026-05-04 20:13 | -25.52297 | -49.23099 | 5471 ft | 201 kts | 243° |
| 2026-05-04 20:13 | -25.53038 | -49.24463 | 6141 ft | 210 kts | 242° |
| 2026-05-04 20:13 | -25.53824 | -49.25886 | 6720 ft | 224 kts | 242° |
| 2026-05-04 20:14 | -25.54666 | -49.27360 | 7299 ft | 235 kts | 240° |
| 2026-05-04 20:14 | -25.55579 | -49.28931 | 7868 ft | 245 kts | 240° |
| 2026-05-04 20:14 | -25.56541 | -49.30563 | 7963 ft | 267 kts | 239° |
| 2026-05-04 20:14 | -25.57608 | -49.32310 | 7961 ft | 277 kts | 238° |
| 2026-05-04 20:15 | -25.58695 | -49.34079 | 7969 ft | 281 kts | 239° |
| 2026-05-04 20:15 | -25.59779 | -49.35864 | 7975 ft | 283 kts | 239° |
| 2026-05-04 20:15 | -25.60700 | -49.37777 | 8429 ft | 281 kts | 257° |
| 2026-05-04 20:15 | -25.60761 | -49.39923 | 9380 ft | 279 kts | 284° |
| 2026-05-04 20:16 | -25.60246 | -49.41990 | 10382 ft | 282 kts | 287° |
| 2026-05-04 20:16 | -25.59719 | -49.44162 | 10994 ft | 300 kts | 287° |
| 2026-05-04 20:16 | -25.59163 | -49.46418 | 11714 ft | 311 kts | 287° |
| 2026-05-04 20:16 | -25.58572 | -49.48750 | 12635 ft | 315 kts | 287° |
| 2026-05-04 20:17 | -25.57961 | -49.51118 | 13588 ft | 320 kts | 287° |
| 2026-05-04 20:17 | -25.57335 | -49.53486 | 14546 ft | 324 kts | 288° |
| 2026-05-04 20:17 | -25.56683 | -49.55898 | 15525 ft | 329 kts | 288° |
| 2026-05-04 20:17 | -25.56008 | -49.58348 | 16456 ft | 334 kts | 288° |
| 2026-05-04 20:18 | -25.55319 | -49.60796 | 17302 ft | 339 kts | 289° |
| 2026-05-04 20:18 | -25.54594 | -49.63316 | 18124 ft | 344 kts | 289° |
| 2026-05-04 20:18 | -25.53865 | -49.65859 | 18897 ft | 348 kts | 288° |
| 2026-05-04 20:18 | -25.53178 | -49.68433 | 19650 ft | 353 kts | 287° |
| 2026-05-04 20:19 | -25.52483 | -49.71071 | 20408 ft | 357 kts | 288° |
| 2026-05-04 20:19 | -25.51783 | -49.73706 | 21127 ft | 362 kts | 288° |
| 2026-05-04 20:19 | -25.51066 | -49.76400 | 21832 ft | 366 kts | 288° |
| 2026-05-04 20:19 | -25.50337 | -49.79127 | 22506 ft | 370 kts | 288° |
| 2026-05-04 20:20 | -25.49606 | -49.81855 | 23130 ft | 374 kts | 288° |
| 2026-05-04 20:20 | -25.48865 | -49.84619 | 23724 ft | 377 kts | 288° |
| 2026-05-04 20:20 | -25.48112 | -49.87433 | 24285 ft | 381 kts | 288° |
| 2026-05-04 20:20 | -25.47353 | -49.90260 | 24841 ft | 384 kts | 288° |
| 2026-05-04 20:21 | -25.46593 | -49.93086 | 25375 ft | 388 kts | 288° |
| 2026-05-04 20:21 | -25.45819 | -49.95966 | 25916 ft | 391 kts | 288° |
| 2026-05-04 20:21 | -25.44255 | -50.01777 | 26905 ft | 398 kts | 288° |
| 2026-05-04 20:22 | -25.43457 | -50.04728 | 27366 ft | 401 kts | 288° |
| 2026-05-04 20:22 | -25.42664 | -50.07670 | 27811 ft | 404 kts | 288° |
| 2026-05-04 20:22 | -25.41853 | -50.10672 | 28248 ft | 407 kts | 288° |
| 2026-05-04 20:22 | -25.41038 | -50.13684 | 28653 ft | 409 kts | 288° |
| 2026-05-04 20:23 | -25.40223 | -50.16698 | 29045 ft | 412 kts | 288° |
| 2026-05-04 20:23 | -25.39396 | -50.19754 | 29418 ft | 415 kts | 288° |
| 2026-05-04 20:23 | -25.38572 | -50.22793 | 29771 ft | 417 kts | 288° |
| 2026-05-04 20:23 | -25.37732 | -50.25888 | 30099 ft | 419 kts | 288° |
| 2026-05-04 20:24 | -25.36896 | -50.28967 | 30432 ft | 422 kts | 288° |
| 2026-05-04 20:24 | -25.36046 | -50.32093 | 30743 ft | 424 kts | 288° |
| 2026-05-04 20:24 | -25.35198 | -50.35212 | 31035 ft | 426 kts | 288° |
| 2026-05-04 20:24 | -25.34344 | -50.38348 | 31316 ft | 428 kts | 288° |
| 2026-05-04 20:25 | -25.33480 | -50.41519 | 31590 ft | 430 kts | 288° |
| 2026-05-04 20:25 | -25.32621 | -50.44665 | 31862 ft | 432 kts | 288° |
| 2026-05-04 20:25 | -25.31748 | -50.47862 | 32187 ft | 431 kts | 288° |
| 2026-05-04 20:25 | -25.30867 | -50.51081 | 32197 ft | 441 kts | 288° |
| 2026-05-04 20:26 | -25.29171 | -50.57699 | 32160 ft | 456 kts | 280° |
| 2026-05-04 20:26 | -25.29034 | -50.64752 | 32076 ft | 461 kts | 270° |
| 2026-05-04 20:27 | -25.29143 | -50.71872 | 32099 ft | 462 kts | 270° |
| 2026-05-04 20:27 | -25.29243 | -50.78961 | 32087 ft | 462 kts | 270° |
| 2026-05-04 20:28 | -25.29338 | -50.86031 | 32097 ft | 462 kts | 270° |
| 2026-05-04 20:28 | -25.29427 | -50.93124 | 32090 ft | 462 kts | 270° |
| 2026-05-04 20:29 | -25.29515 | -51.00260 | 32093 ft | 462 kts | 270° |
| 2026-05-04 20:29 | -25.29597 | -51.07363 | 32097 ft | 462 kts | 271° |
| 2026-05-04 20:30 | -25.29656 | -51.14437 | 32101 ft | 462 kts | 271° |
| 2026-05-04 20:30 | -25.29710 | -51.21522 | 32102 ft | 462 kts | 271° |
| 2026-05-04 20:31 | -25.29754 | -51.27463 | 32102 ft | 462 kts | 271° |
| 2026-05-04 20:31 | -25.29805 | -51.34564 | 32105 ft | 462 kts | 271° |
| 2026-05-04 20:32 | -25.29860 | -51.42820 | 32103 ft | 462 kts | 271° |
| 2026-05-04 20:32 | -25.29904 | -51.49925 | 32100 ft | 462 kts | 271° |
| 2026-05-04 20:33 | -25.29932 | -51.55858 | 32103 ft | 462 kts | 271° |
| 2026-05-04 20:33 | -25.29969 | -51.62983 | 32103 ft | 462 kts | 271° |
| 2026-05-04 20:34 | -25.30005 | -51.70082 | 32102 ft | 462 kts | 271° |
| 2026-05-04 20:34 | -25.30034 | -51.77154 | 32111 ft | 462 kts | 271° |
| 2026-05-04 20:35 | -25.30059 | -51.84249 | 32104 ft | 462 kts | 271° |
| 2026-05-04 20:35 | -25.30082 | -51.91366 | 32099 ft | 462 kts | 271° |
| 2026-05-04 20:36 | -25.30100 | -51.98467 | 32104 ft | 462 kts | 271° |
| 2026-05-04 20:36 | -25.30116 | -52.05547 | 32102 ft | 462 kts | 271° |
| 2026-05-04 20:37 | -25.30128 | -52.12672 | 32099 ft | 462 kts | 271° |
| 2026-05-04 20:37 | -25.30136 | -52.19772 | 32101 ft | 462 kts | 271° |
| 2026-05-04 20:38 | -25.30142 | -52.26872 | 32102 ft | 462 kts | 271° |
| 2026-05-04 20:38 | -25.30138 | -52.33971 | 32102 ft | 462 kts | 271° |
| 2026-05-04 20:39 | -25.30132 | -52.41070 | 32100 ft | 462 kts | 271° |
| 2026-05-04 20:39 | -25.30123 | -52.48176 | 32102 ft | 462 kts | 271° |
| 2026-05-04 20:40 | -25.30109 | -52.55253 | 32101 ft | 462 kts | 271° |
| 2026-05-04 20:40 | -25.30093 | -52.62330 | 32103 ft | 462 kts | 271° |
| 2026-05-04 20:41 | -25.30073 | -52.69431 | 32100 ft | 462 kts | 271° |
| 2026-05-04 20:41 | -25.30050 | -52.76556 | 32115 ft | 462 kts | 271° |
| 2026-05-04 20:42 | -25.30023 | -52.83648 | 32101 ft | 462 kts | 271° |
| 2026-05-04 20:42 | -25.29994 | -52.90700 | 31845 ft | 456 kts | 271° |
| 2026-05-04 20:43 | -25.29977 | -52.94150 | 31540 ft | 440 kts | 271° |
| 2026-05-04 20:43 | -25.29958 | -52.97532 | 30884 ft | 433 kts | 272° |
| 2026-05-04 20:43 | -25.29941 | -53.00803 | 30311 ft | 426 kts | 272° |
| 2026-05-04 20:43 | -25.29921 | -53.04055 | 29740 ft | 419 kts | 272° |
| 2026-05-04 20:44 | -25.29904 | -53.07230 | 29187 ft | 412 kts | 272° |
| 2026-05-04 20:44 | -25.29883 | -53.10373 | 28646 ft | 405 kts | 272° |
| 2026-05-04 20:44 | -25.29861 | -53.13453 | 28118 ft | 403 kts | 272° |
| 2026-05-04 20:44 | -25.29839 | -53.16573 | 27592 ft | 406 kts | 272° |
| 2026-05-04 20:45 | -25.30059 | -53.19710 | 27038 ft | 409 kts | 261° |
| 2026-05-04 20:45 | -25.30670 | -53.22742 | 26501 ft | 409 kts | 258° |
| 2026-05-04 20:45 | -25.31345 | -53.25800 | 25953 ft | 406 kts | 258° |
| 2026-05-04 20:45 | -25.32002 | -53.28817 | 25412 ft | 402 kts | 258° |
| 2026-05-04 20:46 | -25.32643 | -53.31795 | 24884 ft | 398 kts | 258° |
| 2026-05-04 20:46 | -25.33275 | -53.34761 | 24356 ft | 394 kts | 258° |
| 2026-05-04 20:46 | -25.33893 | -53.37673 | 23842 ft | 390 kts | 258° |
| 2026-05-04 20:46 | -25.34511 | -53.40590 | 23329 ft | 387 kts | 258° |
| 2026-05-04 20:47 | -25.35124 | -53.43488 | 22813 ft | 384 kts | 259° |
| 2026-05-04 20:47 | -25.35721 | -53.46329 | 22311 ft | 381 kts | 258° |
| 2026-05-04 20:47 | -25.36323 | -53.49183 | 21807 ft | 378 kts | 259° |
| 2026-05-04 20:47 | -25.36909 | -53.51977 | 21308 ft | 375 kts | 259° |
| 2026-05-04 20:48 | -25.37499 | -53.54796 | 20809 ft | 372 kts | 259° |
| 2026-05-04 20:48 | -25.38071 | -53.57560 | 20320 ft | 369 kts | 259° |
| 2026-05-04 20:48 | -25.38645 | -53.60322 | 19831 ft | 366 kts | 259° |
| 2026-05-04 20:48 | -25.39216 | -53.63071 | 19346 ft | 364 kts | 259° |
| 2026-05-04 20:49 | -25.39777 | -53.65763 | 18871 ft | 361 kts | 259° |
| 2026-05-04 20:49 | -25.40338 | -53.68447 | 18393 ft | 358 kts | 259° |
| 2026-05-04 20:49 | -25.40896 | -53.71132 | 17914 ft | 356 kts | 259° |
| 2026-05-04 20:49 | -25.41454 | -53.73805 | 17445 ft | 353 kts | 259° |
| 2026-05-04 20:50 | -25.41999 | -53.76420 | 16982 ft | 350 kts | 259° |
| 2026-05-04 20:50 | -25.42542 | -53.79042 | 16517 ft | 348 kts | 259° |
| 2026-05-04 20:50 | -25.43084 | -53.81657 | 16055 ft | 346 kts | 259° |
| 2026-05-04 20:50 | -25.43627 | -53.84218 | 15600 ft | 343 kts | 258° |
| 2026-05-04 20:51 | -25.44188 | -53.86781 | 15132 ft | 340 kts | 258° |
| 2026-05-04 20:51 | -25.44740 | -53.89317 | 14688 ft | 334 kts | 258° |
| 2026-05-04 20:51 | -25.45276 | -53.91772 | 14248 ft | 328 kts | 258° |
| 2026-05-04 20:51 | -25.45801 | -53.94203 | 13807 ft | 322 kts | 259° |
| 2026-05-04 20:52 | -25.46313 | -53.96561 | 13388 ft | 313 kts | 259° |
| 2026-05-04 20:52 | -25.46811 | -53.98857 | 12967 ft | 295 kts | 259° |
| 2026-05-04 20:52 | -25.47277 | -54.01012 | 12607 ft | 280 kts | 259° |
| 2026-05-04 20:52 | -25.47962 | -54.02998 | 12268 ft | 280 kts | 240° |
| 2026-05-04 20:53 | -25.49112 | -54.04721 | 11903 ft | 280 kts | 234° |
| 2026-05-04 20:53 | -25.50343 | -54.06411 | 11500 ft | 279 kts | 234° |
| 2026-05-04 20:53 | -25.51539 | -54.08076 | 11140 ft | 278 kts | 234° |
| 2026-05-04 20:53 | -25.52738 | -54.09764 | 10763 ft | 276 kts | 234° |
| 2026-05-04 20:54 | -25.53922 | -54.11437 | 10397 ft | 274 kts | 235° |
| 2026-05-04 20:54 | -25.55096 | -54.13100 | 10034 ft | 273 kts | 235° |
| 2026-05-04 20:54 | -25.56249 | -54.14736 | 9672 ft | 271 kts | 235° |
| 2026-05-04 20:54 | -25.57403 | -54.16381 | 9318 ft | 268 kts | 235° |
| 2026-05-04 20:55 | -25.58546 | -54.18002 | 8960 ft | 262 kts | 235° |
| 2026-05-04 20:55 | -25.59645 | -54.19566 | 8619 ft | 256 kts | 235° |
| 2026-05-04 20:55 | -25.60745 | -54.21130 | 8288 ft | 255 kts | 235° |
| 2026-05-04 20:55 | -25.61828 | -54.22677 | 7956 ft | 255 kts | 235° |
| 2026-05-04 20:56 | -25.62921 | -54.24234 | 7598 ft | 255 kts | 235° |
| 2026-05-04 20:56 | -25.64033 | -54.25756 | 7243 ft | 255 kts | 233° |
| 2026-05-04 20:56 | -25.65198 | -54.27254 | 6921 ft | 255 kts | 232° |
| 2026-05-04 20:56 | -25.66342 | -54.28739 | 6579 ft | 254 kts | 233° |
| 2026-05-04 20:57 | -25.67472 | -54.30213 | 6293 ft | 251 kts | 233° |
| 2026-05-04 20:57 | -25.68494 | -54.31740 | 5996 ft | 240 kts | 248° |
| 2026-05-04 20:57 | -25.68719 | -54.33470 | 5780 ft | 219 kts | 282° |
| 2026-05-04 20:57 | -25.68213 | -54.34966 | 5639 ft | 203 kts | 297° |
| 2026-05-04 20:58 | -25.67610 | -54.36344 | 5484 ft | 193 kts | 297° |
| 2026-05-04 20:58 | -25.67062 | -54.37632 | 5360 ft | 176 kts | 297° |
| 2026-05-04 20:58 | -25.66561 | -54.38819 | 5165 ft | 166 kts | 297° |
| 2026-05-04 20:58 | -25.66085 | -54.39940 | 5017 ft | 154 kts | 297° |
| 2026-05-04 20:59 | -25.65652 | -54.40977 | 4888 ft | 144 kts | 297° |
| 2026-05-04 20:59 | -25.65120 | -54.41929 | 4603 ft | 147 kts | 311° |
| 2026-05-04 20:59 | -25.64404 | -54.42746 | 4220 ft | 150 kts | 316° |
| 2026-05-04 20:59 | -25.63660 | -54.43579 | 3776 ft | 152 kts | 314° |
| 2026-05-04 21:00 | -25.62923 | -54.44453 | 3212 ft | 160 kts | 314° |
| 2026-05-04 21:00 | -25.62163 | -54.45389 | 2526 ft | 172 kts | 309° |
| 2026-05-04 21:00 | -25.61265 | -54.46225 | 2238 ft | 164 kts | 332° |
| 2026-05-04 21:00 | -25.60159 | -54.46411 | 1984 ft | 162 kts | 11° |
| 2026-05-04 21:01 | -25.59260 | -54.45793 | 1900 ft | 151 kts | 60° |
| 2026-05-04 21:01 | -25.58967 | -54.44727 | 1847 ft | 143 kts | 90° |
| 2026-05-04 21:01 | -25.59042 | -54.43656 | 1861 ft | 138 kts | 102° |
| 2026-05-04 21:01 | -25.59210 | -54.42597 | 1898 ft | 140 kts | 104° |
| 2026-05-04 21:02 | -25.59405 | -54.41530 | 1955 ft | 143 kts | 110° |
| 2026-05-04 21:02 | -25.59917 | -54.40626 | 1994 ft | 139 kts | 150° |
| 2026-05-04 21:02 | -25.60861 | -54.40566 | 1921 ft | 147 kts | 205° |
| 2026-05-04 21:02 | -25.61586 | -54.41388 | 1898 ft | 153 kts | 239° |
| 2026-05-04 21:03 | -25.61915 | -54.42514 | 1929 ft | 157 kts | 258° |
| 2026-05-04 21:03 | -25.61965 | -54.43725 | 1959 ft | 158 kts | 267° |
| 2026-05-04 21:03 | -25.61906 | -54.44953 | 1927 ft | 158 kts | 273° |
| 2026-05-04 21:03 | -25.61659 | -54.46127 | 1801 ft | 160 kts | 291° |
| 2026-05-04 21:04 | -25.60931 | -54.47120 | 1252 ft | 173 kts | 317° |
| 2026-05-04 21:04 | -25.60091 | -54.48089 | 844 ft | 169 kts | 312° |
| 2026-05-04 21:04 | -25.59377 | -54.48999 | 799 ft | 143 kts | 312° |
| 2026-05-04 21:04 | -25.58862 | -54.49656 | 798 ft | 84 kts | 311° |
| 2026-05-04 21:05 | -25.58659 | -54.49887 | 800 ft | 15 kts | 350° |
| 2026-05-04 21:05 | -25.58572 | -54.49932 | 800 ft | 13 kts | 310° |
| 2026-05-04 21:05 | -25.58584 | -54.49993 | 800 ft | 9 kts | 212° |
| 2026-05-04 21:05 | -25.58626 | -54.49964 | 801 ft | 8 kts | 124° |
| 2026-05-04 21:06 | -25.58663 | -54.49906 | 800 ft | 11 kts | 127° |
| 2026-05-04 21:06 | -25.58717 | -54.49826 | 799 ft | 15 kts | 128° |
| 2026-05-04 21:06 | -25.58789 | -54.49736 | 799 ft | 17 kts | 133° |
| 2026-05-04 21:06 | -25.58876 | -54.49633 | 797 ft | 20 kts | 133° |
| 2026-05-04 21:07 | -25.58978 | -54.49505 | 795 ft | 23 kts | 129° |
| 2026-05-04 21:07 | -25.59079 | -54.49365 | 795 ft | 24 kts | 128° |
| 2026-05-04 21:07 | -25.59188 | -54.49219 | 796 ft | 24 kts | 132° |
| 2026-05-04 21:07 | -25.59299 | -54.49086 | 798 ft | 22 kts | 133° |
| 2026-05-04 21:08 | -25.59396 | -54.49019 | 799 ft | 13 kts | 192° |
| 2026-05-04 21:08 | -25.59467 | -54.49046 | 797 ft | 11 kts | 152° |
| 2026-05-04 21:08 | -25.59499 | -54.49057 | 797 ft | 5 kts | 226° |
| 2026-05-04 21:08 | -25.59517 | -54.49077 | 797 ft | 0 kts | 220° |